Time;durP1;ratioP1;P1;durP2;ratioP2;P2;SDS_P1;SDS_P2;PMS_P1;PMS_P2;Temp;Humidity;BMP_temperature;BMP_pressure;BME280_temperature;BME280_humidity;BME280_pressure;Samples;Min_cycle;Max_cycle;Signal;HPM_P1;HPM_P2
2021/06/25 00:01:45;;;;;;;30.45;16.42;;;;;;;24.51;85.38;100457.66;5055384;28;20111;-83
2021/06/25 00:04:11;;;;;;;21.55;17.83;;;;;;;24.53;84.81;100453.06;5054694;28;20027;-84
2021/06/25 00:06:36;;;;;;;33.42;18.15;;;;;;;24.43;84.91;100444.66;5040467;28;20115;-82
2021/06/25 00:09:02;;;;;;;25.40;17.02;;;;;;;24.36;85.13;100445.97;5038494;28;20482;-84
2021/06/25 00:11:28;;;;;;;27.35;17.77;;;;;;;24.34;85.00;100447.84;5052798;28;20490;-82
2021/06/25 00:13:54;;;;;;;29.60;16.80;;;;;;;24.31;84.78;100445.34;5054421;28;20020;-82
2021/06/25 00:16:20;;;;;;;20.60;15.10;;;;;;;24.45;84.21;100441.88;5052954;28;20020;-84
2021/06/25 00:18:46;;;;;;;22.85;14.93;;;;;;;24.43;83.25;100443.78;5055654;28;20051;-82
2021/06/25 00:21:12;;;;;;;27.75;16.88;;;;;;;24.40;83.00;100444.84;5036225;28;20036;-82
2021/06/25 00:23:37;;;;;;;24.17;15.88;;;;;;;24.45;83.15;100449.94;5029975;28;20036;-86
2021/06/25 00:26:03;;;;;;;31.10;15.20;;;;;;;24.55;82.63;100447.63;5045296;28;20405;-86
2021/06/25 00:28:28;;;;;;;27.13;15.07;;;;;;;24.66;81.99;100453.25;5024983;28;20033;-86
2021/06/25 00:30:54;;;;;;;26.63;15.60;;;;;;;24.68;81.95;100451.34;5036901;28;20113;-86
2021/06/25 00:33:19;;;;;;;29.38;15.27;;;;;;;24.63;81.97;100450.72;5053482;28;20463;-85
2021/06/25 00:35:45;;;;;;;23.30;13.50;;;;;;;24.69;82.13;100450.38;5019173;28;20391;-85
2021/06/25 00:38:11;;;;;;;22.25;15.27;;;;;;;24.68;81.63;100453.13;5021029;28;20379;-88
2021/06/25 00:40:36;;;;;;;20.30;14.10;;;;;;;24.56;82.13;100444.84;5027188;28;20025;-83
2021/06/25 00:43:03;;;;;;;25.52;14.98;;;;;;;24.49;82.16;100454.22;5019516;28;20035;-83
2021/06/25 00:45:30;;;;;;;26.50;15.35;;;;;;;24.56;82.19;100444.84;5017491;28;20025;-84
2021/06/25 00:47:56;;;;;;;20.92;12.90;;;;;;;24.60;82.07;100450.91;5034137;28;20021;-84
2021/06/25 00:50:29;;;;;;;29.70;15.75;;;;;;;24.56;82.12;100450.22;5033807;28;20090;-83
2021/06/25 00:52:57;;;;;;;30.27;14.88;;;;;;;24.48;82.07;100446.25;5020473;28;20539;-83
2021/06/25 00:55:27;;;;;;;28.20;13.32;;;;;;;24.49;82.12;100453.31;5028182;28;20029;-84
2021/06/25 00:57:53;;;;;;;17.98;13.07;;;;;;;24.43;82.10;100444.66;5033547;28;20098;-85
2021/06/25 01:00:19;;;;;;;26.65;14.23;;;;;;;24.52;81.72;100437.06;5015980;28;20037;-85
2021/06/25 01:02:45;;;;;;;32.47;14.05;;;;;;;24.51;81.76;100432.66;5033699;28;20028;-86
2021/06/25 01:05:12;;;;;;;24.75;12.15;;;;;;;24.56;81.62;100439.50;5035004;28;20029;-86
2021/06/25 01:07:38;;;;;;;20.50;12.65;;;;;;;24.64;81.85;100437.22;5051917;28;20112;-84
2021/06/25 01:10:07;;;;;;;19.00;12.38;;;;;;;24.71;81.28;100437.72;5016108;28;20115;-84
2021/06/25 01:12:33;;;;;;;21.88;13.95;;;;;;;24.71;81.38;100426.13;5016363;28;20044;-86
2021/06/25 01:14:59;;;;;;;21.90;14.52;;;;;;;24.74;81.19;100425.94;5029186;28;20028;-87
2021/06/25 01:17:33;;;;;;;22.23;13.02;;;;;;;24.61;81.81;100423.13;5049467;28;20037;-87
2021/06/25 01:20:03;;;;;;;22.83;13.93;;;;;;;24.62;81.61;100419.47;5028281;28;20112;-88
2021/06/25 01:22:39;;;;;;;33.33;13.45;;;;;;;24.66;81.49;100431.78;5033672;28;20054;-86
2021/06/25 01:25:08;;;;;;;21.38;13.02;;;;;;;24.67;81.36;100424.56;5048380;28;20017;-86
2021/06/25 01:27:36;;;;;;;17.70;12.07;;;;;;;24.75;81.65;100423.19;5026156;28;20068;-85
2021/06/25 01:30:03;;;;;;;23.08;13.90;;;;;;;24.77;81.42;100417.69;5071523;28;20114;-86
2021/06/25 01:32:29;;;;;;;17.45;11.68;;;;;;;24.73;81.99;100413.50;5067734;28;20056;-87
2021/06/25 01:34:55;;;;;;;27.55;13.18;;;;;;;24.70;81.85;100409.16;5071323;28;20028;-86
2021/06/25 01:37:25;;;;;;;29.83;13.05;;;;;;;24.56;82.44;100391.19;5054473;28;20551;-86
2021/06/25 01:39:51;;;;;;;21.60;14.07;;;;;;;24.52;82.22;100399.50;5052498;28;20063;-88
2021/06/25 01:42:17;;;;;;;17.20;13.57;;;;;;;24.57;81.75;100400.97;5071509;28;20033;-87
2021/06/25 01:44:44;;;;;;;22.00;13.50;;;;;;;24.47;82.08;100399.78;5070447;28;20063;-83
2021/06/25 01:47:10;;;;;;;29.48;14.30;;;;;;;24.46;82.23;100395.31;5047397;28;20040;-83
2021/06/25 01:49:36;;;;;;;25.92;13.43;;;;;;;24.37;82.36;100395.84;5049256;28;20017;-84
2021/06/25 01:52:02;;;;;;;23.88;13.57;;;;;;;24.31;82.75;100393.53;5067113;28;20056;-83
2021/06/25 01:54:28;;;;;;;28.67;12.45;;;;;;;24.40;82.42;100387.66;5069633;28;20035;-84
2021/06/25 01:56:53;;;;;;;25.33;13.45;;;;;;;24.44;82.15;100390.06;5063555;28;20025;-83
2021/06/25 01:59:20;;;;;;;18.55;14.18;;;;;;;24.51;81.73;100387.03;5072382;28;20047;-84
2021/06/25 02:01:45;;;;;;;23.10;14.68;;;;;;;24.47;81.78;100377.44;5050066;28;20813;-84
2021/06/25 02:04:11;;;;;;;20.65;13.50;;;;;;;24.42;81.58;100369.66;5076169;28;20031;-86
2021/06/25 02:06:36;;;;;;;21.10;13.52;;;;;;;24.43;82.17;100369.53;5074442;28;20481;-84
2021/06/25 02:09:02;;;;;;;28.15;12.02;;;;;;;24.47;81.61;100364.03;5070327;28;20115;-84
2021/06/25 02:11:29;;;;;;;23.33;14.18;;;;;;;24.38;82.02;100365.41;5067872;28;20028;-84
2021/06/25 02:13:54;;;;;;;24.77;13.27;;;;;;;24.27;81.93;100370.53;5058712;28;20032;-85
2021/06/25 02:16:20;;;;;;;17.50;12.85;;;;;;;24.08;82.82;100357.31;5073834;28;20028;-84
2021/06/25 02:18:46;;;;;;;25.52;13.45;;;;;;;24.18;82.90;100363.88;5073089;28;20584;-85
2021/06/25 02:21:11;;;;;;;15.93;11.35;;;;;;;24.25;82.33;100350.97;5056601;28;20031;-83
2021/06/25 02:23:37;;;;;;;22.42;13.25;;;;;;;24.22;81.82;100355.56;5085943;28;20102;-84
2021/06/25 02:26:03;;;;;;;18.85;12.63;;;;;;;24.23;81.90;100364.47;5054622;28;20029;-84
2021/06/25 02:28:29;;;;;;;18.92;12.85;;;;;;;24.26;82.04;100358.09;5065723;28;20132;-86
2021/06/25 02:30:55;;;;;;;21.55;12.90;;;;;;;24.27;81.79;100362.47;5068938;28;20541;-84
2021/06/25 02:33:21;;;;;;;18.73;11.82;;;;;;;24.35;81.54;100361.09;5053680;28;20067;-86
2021/06/25 02:35:47;;;;;;;26.50;15.73;;;;;;;24.37;82.15;100364.56;5052740;28;20028;-84
2021/06/25 02:38:12;;;;;;;23.90;13.55;;;;;;;24.27;82.70;100362.47;5050667;28;20075;-84
2021/06/25 02:40:38;;;;;;;21.55;13.55;;;;;;;24.30;82.18;100356.94;5068502;28;20033;-84
2021/06/25 02:43:04;;;;;;;15.30;12.88;;;;;;;24.20;83.01;100365.50;5048842;28;20463;-86
2021/06/25 02:45:29;;;;;;;20.25;14.15;;;;;;;24.15;82.81;100353.31;5075089;28;20416;-85
2021/06/25 02:47:55;;;;;;;17.30;12.60;;;;;;;24.10;83.07;100347.38;5072196;28;20479;-86
2021/06/25 02:50:21;;;;;;;16.05;11.90;;;;;;;24.12;82.74;100354.38;5054901;28;20045;-84
2021/06/25 02:52:46;;;;;;;18.25;11.75;;;;;;;24.21;82.75;100358.34;5073555;28;20040;-84
2021/06/25 02:55:12;;;;;;;20.02;12.40;;;;;;;24.23;82.34;100357.31;5077118;28;20020;-85
2021/06/25 02:57:41;;;;;;;22.10;12.88;;;;;;;24.21;82.27;100356.53;5049214;28;20137;-86
2021/06/25 03:00:11;;;;;;;22.60;13.95;;;;;;;24.21;82.58;100355.66;5070661;28;20027;-85
2021/06/25 03:02:36;;;;;;;24.83;13.25;;;;;;;24.17;82.35;100346.91;5069439;28;20074;-84
2021/06/25 03:05:03;;;;;;;26.05;13.02;;;;;;;24.23;82.40;100351.06;5068493;28;20373;-86
2021/06/25 03:07:28;;;;;;;19.90;14.43;;;;;;;24.33;82.49;100351.41;5069654;28;20025;-85
2021/06/25 03:09:54;;;;;;;26.23;13.88;;;;;;;24.33;82.95;100338.84;5050934;28;20067;-83
2021/06/25 03:12:19;;;;;;;17.45;13.80;;;;;;;24.33;82.89;100348.72;5054174;28;20387;-84
2021/06/25 03:14:45;;;;;;;21.73;13.02;;;;;;;24.36;83.12;100353.91;5078151;28;20040;-83
2021/06/25 03:17:11;;;;;;;17.02;13.00;;;;;;;24.34;83.28;100348.63;5066351;28;20036;-85
2021/06/25 03:19:36;;;;;;;29.13;13.68;;;;;;;24.25;83.34;100356.34;5061136;28;20020;-83
2021/06/25 03:22:05;;;;;;;29.70;14.55;;;;;;;24.20;83.14;100349.41;5066268;28;20055;-84
2021/06/25 03:24:31;;;;;;;27.30;14.05;;;;;;;24.19;82.81;100336.13;5064526;28;20036;-85
2021/06/25 03:26:56;;;;;;;28.48;14.15;;;;;;;24.23;82.35;100343.91;5071000;28;20028;-84
2021/06/25 03:29:22;;;;;;;17.33;13.55;;;;;;;24.26;82.14;100347.34;5066399;28;20443;-85
2021/06/25 03:31:47;;;;;;;20.58;12.25;;;;;;;24.22;82.07;100350.19;5066452;28;20052;-86
2021/06/25 03:34:13;;;;;;;27.83;13.48;;;;;;;24.22;82.33;100352.03;5069633;28;20021;-84
2021/06/25 03:36:39;;;;;;;21.25;14.07;;;;;;;24.08;83.37;100358.16;5072206;28;20444;-84
2021/06/25 03:39:05;;;;;;;17.95;11.93;;;;;;;24.15;83.35;100361.38;5073524;28;20028;-85
2021/06/25 03:41:30;;;;;;;16.05;12.25;;;;;;;24.07;83.42;100364.50;5069240;28;20035;-84
2021/06/25 03:43:56;;;;;;;26.38;14.93;;;;;;;24.08;83.23;100365.34;5074216;28;20107;-85
2021/06/25 03:46:22;;;;;;;29.60;13.73;;;;;;;24.07;82.87;100366.28;5073544;28;20055;-83
2021/06/25 03:48:51;;;;;;;20.23;13.60;;;;;;;24.08;83.11;100360.00;5056273;28;20104;-84
2021/06/25 03:51:17;;;;;;;25.25;13.00;;;;;;;23.98;82.78;100355.16;5070185;28;20035;-85
2021/06/25 03:53:42;;;;;;;21.55;14.18;;;;;;;24.01;82.42;100352.28;5071909;28;20028;-84
2021/06/25 03:56:15;;;;;;;21.10;12.05;;;;;;;24.21;81.54;100351.16;5073083;28;20085;-86
2021/06/25 03:58:45;;;;;;;19.67;11.80;;;;;;;24.40;81.12;100353.63;5071732;28;20024;-86
2021/06/25 04:01:11;;;;;;;19.13;11.18;;;;;;;24.51;80.22;100369.13;5067868;28;20032;-86
2021/06/25 04:03:38;;;;;;;13.07;10.23;;;;;;;24.66;79.79;100372.72;5045135;28;20479;-85
2021/06/25 04:06:04;;;;;;;35.47;12.52;;;;;;;24.70;79.71;100373.41;5089718;28;20033;-85
2021/06/25 04:08:31;;;;;;;40.42;12.13;;;;;;;24.74;80.09;100380.31;5032128;28;20032;-85
2021/06/25 04:10:57;;;;;;;18.00;11.65;;;;;;;24.61;80.44;100369.47;5070696;28;20031;-84
2021/06/25 04:13:24;;;;;;;20.20;12.00;;;;;;;24.28;81.67;100381.19;5052930;28;20020;-86
2021/06/25 04:15:49;;;;;;;21.02;11.80;;;;;;;24.24;81.71;100382.31;5072717;28;20028;-85
2021/06/25 04:18:15;;;;;;;34.03;14.70;;;;;;;24.29;82.08;100374.00;5055373;28;20028;-85
2021/06/25 04:20:42;;;;;;;23.92;11.50;;;;;;;24.38;81.20;100374.31;5071854;28;20097;-83
2021/06/25 04:23:08;;;;;;;24.20;13.07;;;;;;;24.52;80.65;100364.63;5068910;28;20019;-84
2021/06/25 04:25:33;;;;;;;19.98;11.98;;;;;;;24.37;80.54;100356.50;5067978;28;20036;-84
2021/06/25 04:27:59;;;;;;;19.00;13.30;;;;;;;24.43;80.45;100363.31;5066297;28;20539;-84
2021/06/25 04:30:25;;;;;;;28.23;12.98;;;;;;;24.54;80.01;100360.91;5070626;28;20111;-84
2021/06/25 04:32:51;;;;;;;29.20;14.30;;;;;;;24.63;79.37;100365.72;5082485;28;20021;-84
2021/06/25 04:35:16;;;;;;;26.15;12.60;;;;;;;24.67;79.29;100355.66;5069543;28;20035;-85
2021/06/25 04:37:42;;;;;;;25.98;14.10;;;;;;;24.64;79.18;100366.59;5064635;28;20028;-85
2021/06/25 04:40:08;;;;;;;14.45;12.20;;;;;;;24.46;79.75;100352.41;5054322;28;20028;-89
2021/06/25 04:42:34;;;;;;;30.77;12.85;;;;;;;24.44;79.96;100355.19;5070980;28;20020;-87
2021/06/25 04:45:00;;;;;;;21.75;13.45;;;;;;;24.52;79.59;100353.91;5068712;28;20087;-77
2021/06/25 04:47:25;;;;;;;22.50;12.23;;;;;;;24.52;79.53;100359.28;5069727;28;20064;-78
2021/06/25 04:49:51;;;;;;;21.80;12.85;;;;;;;24.71;79.40;100359.91;5064781;28;20033;-77
2021/06/25 04:52:16;;;;;;;21.30;12.82;;;;;;;24.78;79.18;100372.00;5066750;28;20032;-79
2021/06/25 04:54:42;;;;;;;28.90;12.57;;;;;;;24.84;79.31;100368.94;5071505;28;20059;-76
2021/06/25 04:57:07;;;;;;;16.00;12.35;;;;;;;24.98;79.00;100369.91;5068995;28;20123;-76
2021/06/25 04:59:33;;;;;;;27.02;14.18;;;;;;;25.09;78.53;100366.59;5070823;28;20052;-78
2021/06/25 05:01:58;;;;;;;18.60;12.73;;;;;;;25.14;78.71;100359.97;5066912;28;20062;-77
2021/06/25 05:04:24;;;;;;;20.70;13.23;;;;;;;25.30;78.42;100369.81;5066296;28;20032;-78
2021/06/25 05:06:49;;;;;;;29.75;12.63;;;;;;;25.48;77.20;100361.47;5068311;28;20020;-76
2021/06/25 05:09:15;;;;;;;30.88;13.23;;;;;;;25.70;76.09;100357.41;5067725;28;20064;-81
2021/06/25 05:11:41;;;;;;;21.13;11.60;;;;;;;25.90;75.22;100356.16;5060759;28;20020;-81
2021/06/25 05:14:07;;;;;;;25.58;10.63;;;;;;;26.16;74.47;100365.22;5074754;28;20165;-81
2021/06/25 05:16:33;;;;;;;23.27;12.77;;;;;;;26.30;74.05;100367.00;5062072;28;20032;-81
2021/06/25 05:18:58;;;;;;;18.58;12.23;;;;;;;26.55;73.22;100373.44;5070786;28;20013;-80
2021/06/25 05:21:24;;;;;;;19.25;11.27;;;;;;;26.72;71.92;100370.50;5068551;28;20063;-81
2021/06/25 05:23:50;;;;;;;28.63;13.75;;;;;;;26.92;71.82;100367.25;5069472;28;20113;-81
2021/06/25 05:26:15;;;;;;;14.80;11.35;;;;;;;27.09;71.64;100378.69;5056622;28;20065;-83
2021/06/25 05:28:41;;;;;;;15.77;11.05;;;;;;;27.16;71.39;100369.25;5065664;28;20033;-81
2021/06/25 05:31:06;;;;;;;28.88;10.95;;;;;;;27.28;69.58;100373.81;5053693;28;20021;-81
2021/06/25 05:33:32;;;;;;;25.52;11.98;;;;;;;27.40;68.92;100376.59;5067146;28;20029;-81
2021/06/25 05:35:58;;;;;;;20.27;10.90;;;;;;;27.50;69.83;100381.22;5048762;28;20033;-81
2021/06/25 05:38:23;;;;;;;29.30;12.50;;;;;;;27.56;68.31;100386.16;5070150;28;20027;-82
2021/06/25 05:40:49;;;;;;;24.30;10.98;;;;;;;27.42;66.99;100391.69;5069631;28;20028;-82
2021/06/25 05:43:14;;;;;;;22.00;10.88;;;;;;;27.61;67.25;100390.38;5068238;28;20722;-80
2021/06/25 05:45:41;;;;;;;26.48;12.00;;;;;;;27.70;67.15;100385.19;5071110;28;20035;-81
2021/06/25 05:48:07;;;;;;;26.02;11.82;;;;;;;27.64;66.49;100379.38;5064655;28;20021;-83
2021/06/25 05:50:33;;;;;;;26.00;9.45;;;;;;;27.72;66.55;100385.94;5069514;28;20029;-82
2021/06/25 05:52:59;;;;;;;33.53;11.60;;;;;;;27.75;66.57;100377.63;5069480;28;20020;-81
2021/06/25 05:55:24;;;;;;;28.30;11.45;;;;;;;27.80;65.73;100385.38;5069176;28;20028;-82
2021/06/25 05:57:51;;;;;;;25.55;11.48;;;;;;;27.93;66.40;100386.25;5064455;28;20139;-82
2021/06/25 06:00:17;;;;;;;27.77;10.38;;;;;;;28.10;66.13;100390.41;5067663;28;20046;-82
2021/06/25 06:02:44;;;;;;;30.20;11.55;;;;;;;28.21;65.61;100394.97;5067729;28;20020;-81
2021/06/25 06:05:10;;;;;;;31.10;11.50;;;;;;;28.34;64.49;100389.53;5068277;28;20020;-83
2021/06/25 06:07:35;;;;;;;29.73;11.50;;;;;;;28.42;64.82;100390.69;5069044;28;20028;-84
2021/06/25 06:10:01;;;;;;;27.67;11.38;;;;;;;28.35;64.81;100392.16;5069177;28;21723;-77
2021/06/25 06:12:27;;;;;;;24.05;11.55;;;;;;;28.51;63.99;100407.22;5065832;28;20374;-78
2021/06/25 06:14:52;;;;;;;18.15;11.52;;;;;;;28.55;64.32;100414.97;5061177;28;20079;-77
2021/06/25 06:17:19;;;;;;;24.27;11.18;;;;;;;28.61;64.55;100405.53;5068467;28;20028;-77
2021/06/25 06:19:47;;;;;;;17.98;10.90;;;;;;;28.60;64.59;100403.81;5064202;28;20367;-77
2021/06/25 06:33:15;;;;;;;15.98;9.63;;;;;;;27.29;64.67;100388.97;5046528;28;20063;-74
2021/06/25 06:35:41;;;;;;;18.50;10.85;;;;;;;27.33;64.72;100389.66;5042624;28;20025;-73
2021/06/25 06:38:07;;;;;;;19.08;10.63;;;;;;;27.04;65.95;100397.00;5047730;28;20021;-72
2021/06/25 06:40:33;;;;;;;19.70;13.13;;;;;;;26.93;66.47;100395.09;5026481;28;20035;-74
2021/06/25 06:42:59;;;;;;;33.25;14.13;;;;;;;26.90;67.01;100393.47;5054702;28;20032;-75
2021/06/25 06:45:25;;;;;;;21.67;12.82;;;;;;;27.52;65.55;100391.91;5062309;28;20039;-71
2021/06/25 06:47:51;;;;;;;24.45;13.98;;;;;;;27.54;64.29;100382.72;5063700;28;20406;-72
2021/06/25 06:50:16;;;;;;;31.30;14.18;;;;;;;27.76;64.94;100384.72;5058957;28;20419;-72
2021/06/25 06:52:46;;;;;;;20.42;13.15;;;;;;;28.06;65.09;100379.94;5066718;28;20074;-72
2021/06/25 06:55:13;;;;;;;19.17;13.65;;;;;;;27.65;64.48;100387.34;5067112;28;20422;-73
2021/06/25 06:57:39;;;;;;;26.40;13.95;;;;;;;27.49;65.30;100389.44;5067425;28;20467;-72
2021/06/25 07:00:06;;;;;;;21.33;13.15;;;;;;;27.67;65.25;100393.47;5068406;28;20030;-75
2021/06/25 07:02:31;;;;;;;19.73;14.75;;;;;;;27.72;65.17;100391.34;5064078;28;20135;-75
2021/06/25 07:04:57;;;;;;;16.77;14.75;;;;;;;27.56;64.80;100388.88;5068197;28;20382;-75
2021/06/25 07:07:22;;;;;;;20.20;13.57;;;;;;;27.39;65.74;100394.56;5059787;28;20074;-75
2021/06/25 07:09:48;;;;;;;26.38;14.25;;;;;;;28.49;62.45;100395.66;5061644;28;20017;-74
2021/06/25 07:12:13;;;;;;;22.85;13.75;;;;;;;28.45;61.35;100402.22;5069757;28;20471;-75
2021/06/25 07:14:39;;;;;;;15.60;13.18;;;;;;;28.79;61.46;100400.56;5069977;28;20052;-75
2021/06/25 07:17:04;;;;;;;34.65;12.80;;;;;;;29.06;61.04;100403.00;5065657;28;20047;-77
2021/06/25 07:19:30;;;;;;;18.77;13.95;;;;;;;28.84;61.24;100395.66;5067559;28;20027;-74
2021/06/25 07:21:55;;;;;;;24.38;13.85;;;;;;;28.72;61.27;100402.88;5062650;28;20475;-75
2021/06/25 07:24:21;;;;;;;27.90;12.75;;;;;;;29.23;60.89;100405.25;5073775;28;20029;-76
2021/06/25 07:26:49;;;;;;;17.45;13.50;;;;;;;28.89;61.92;100406.13;5069312;28;20105;-75
2021/06/25 07:29:15;;;;;;;26.08;14.18;;;;;;;29.24;61.34;100408.81;5047334;28;20136;-78
2021/06/25 07:31:44;;;;;;;31.67;15.02;;;;;;;29.64;60.30;100406.53;5035380;28;20044;-75
2021/06/25 07:34:09;;;;;;;26.15;15.80;;;;;;;29.76;59.51;100407.44;5028420;28;20412;-76
2021/06/25 07:36:35;;;;;;;21.45;14.50;;;;;;;29.09;60.23;100410.88;5033579;28;20029;-75
2021/06/25 07:39:00;;;;;;;16.08;13.98;;;;;;;28.89;60.73;100403.41;5034857;28;20028;-76
2021/06/25 07:41:26;;;;;;;23.45;14.52;;;;;;;28.75;61.00;100401.78;5050611;28;20364;-74
2021/06/25 07:43:52;;;;;;;21.83;14.35;;;;;;;29.32;62.20;100406.38;5049729;28;20021;-74
2021/06/25 07:46:17;;;;;;;20.00;14.90;;;;;;;28.25;62.30;100401.03;5044768;28;20052;-74
2021/06/25 07:48:43;;;;;;;18.88;14.25;;;;;;;28.29;63.40;100406.09;5051217;28;20387;-73
2021/06/25 07:51:08;;;;;;;23.77;13.18;;;;;;;29.23;60.78;100413.38;5031050;28;20108;-74
2021/06/25 07:53:34;;;;;;;24.10;14.70;;;;;;;29.54;61.13;100415.50;5046589;28;20368;-74
2021/06/25 07:55:59;;;;;;;24.40;14.35;;;;;;;29.90;60.33;100427.97;5046093;28;20020;-75
2021/06/25 07:58:25;;;;;;;21.70;16.25;;;;;;;30.15;58.95;100431.34;5048111;28;20751;-73
2021/06/25 08:00:50;;;;;;;49.30;16.17;;;;;;;30.28;61.18;100432.09;5034907;28;20552;-72
2021/06/25 08:03:16;;;;;;;20.38;13.50;;;;;;;30.14;58.02;100435.91;5030707;28;20063;-72
2021/06/25 08:05:41;;;;;;;29.27;12.73;;;;;;;30.08;57.22;100434.56;5047680;28;20068;-72
2021/06/25 08:08:07;;;;;;;39.40;12.75;;;;;;;30.40;55.55;100435.66;5029285;28;20021;-72
2021/06/25 08:10:33;;;;;;;40.20;13.82;;;;;;;30.20;56.98;100431.84;5032476;28;20029;-72
2021/06/25 08:12:59;;;;;;;29.17;13.82;;;;;;;30.35;56.17;100432.47;5023066;28;20029;-71
2021/06/25 08:15:24;;;;;;;18.30;12.88;;;;;;;30.35;56.87;100435.19;5045824;28;20480;-73
2021/06/25 08:17:50;;;;;;;19.13;12.73;;;;;;;30.31;57.77;100436.41;5043846;28;20050;-72
2021/06/25 08:20:15;;;;;;;21.73;12.75;;;;;;;30.61;56.01;100433.00;5051229;28;20020;-72
2021/06/25 08:22:41;;;;;;;23.52;11.88;;;;;;;30.57;55.98;100437.78;5033280;28;20498;-72
2021/06/25 08:25:07;;;;;;;34.03;13.30;;;;;;;30.66;55.58;100433.47;5045459;28;20025;-73
2021/06/25 08:27:32;;;;;;;24.80;13.90;;;;;;;30.69;57.31;100428.63;5049709;28;20051;-72
2021/06/25 08:29:58;;;;;;;21.50;12.15;;;;;;;30.69;57.25;100425.06;5048447;28;20026;-71
2021/06/25 08:32:23;;;;;;;17.70;13.35;;;;;;;30.86;55.34;100432.69;5071631;28;20027;-72
2021/06/25 08:34:49;;;;;;;28.48;12.98;;;;;;;31.03;57.30;100433.94;5071215;28;20025;-73
2021/06/25 08:37:14;;;;;;;20.90;13.38;;;;;;;31.04;56.37;100443.78;5034188;28;20032;-73
2021/06/25 08:39:40;;;;;;;25.00;14.02;;;;;;;31.23;55.13;100443.06;5066417;28;20487;-73
2021/06/25 08:42:06;;;;;;;22.38;13.85;;;;;;;31.33;56.49;100443.13;5067806;28;20054;-74
2021/06/25 08:44:37;;;;;;;20.85;12.90;;;;;;;31.62;53.08;100443.31;5045320;28;20025;-73
2021/06/25 08:47:03;;;;;;;18.92;12.68;;;;;;;31.73;54.90;100429.66;5064351;28;20112;-73
2021/06/25 08:49:29;;;;;;;23.75;14.43;;;;;;;31.95;54.73;100430.47;5068032;28;20028;-73
2021/06/25 08:51:55;;;;;;;21.88;13.77;;;;;;;31.63;53.57;100433.31;5061885;28;20436;-73
2021/06/25 08:54:20;;;;;;;36.25;12.68;;;;;;;31.33;54.50;100432.28;5068126;28;20436;-72
2021/06/25 08:56:46;;;;;;;16.20;13.95;;;;;;;31.64;53.04;100424.19;5068454;28;20111;-72
2021/06/25 08:59:18;;;;;;;33.03;13.65;;;;;;;31.72;54.33;100425.22;5073498;28;20677;-72
2021/06/25 09:01:46;;;;;;;31.10;11.77;;;;;;;31.79;53.55;100424.69;5068595;28;20130;-73
2021/06/25 09:04:31;;;;;;;31.98;13.10;;;;;;;31.92;52.52;100422.59;5069762;28;20036;-72
2021/06/25 09:06:57;;;;;;;33.05;14.85;;;;;;;32.18;51.92;100421.13;5068289;28;20020;-71
2021/06/25 09:09:22;;;;;;;22.38;14.00;;;;;;;32.28;51.93;100423.00;5070815;28;20048;-72
2021/06/25 09:12:12;;;;;;;17.60;12.23;;;;;;;32.32;54.45;100411.72;5069420;28;20391;-72
2021/06/25 09:15:05;;;;;;;36.10;12.93;;;;;;;32.44;52.01;100403.44;5063107;28;20547;-73
2021/06/25 09:17:31;;;;;;;29.13;13.98;;;;;;;32.24;51.65;100402.53;5067028;28;20028;-71
2021/06/25 09:19:56;;;;;;;27.27;13.25;;;;;;;32.26;52.01;100401.41;5068050;28;20075;-71
2021/06/25 09:22:23;;;;;;;26.90;12.85;;;;;;;32.41;50.88;100399.16;5063707;28;20438;-73
2021/06/25 09:25:03;;;;;;;27.38;12.23;;;;;;;32.07;52.67;100402.22;5058472;28;20597;-72
2021/06/25 09:27:30;;;;;;;23.35;12.15;;;;;;;32.12;50.75;100397.25;5053111;28;20091;-74
2021/06/25 09:29:56;;;;;;;27.45;14.68;;;;;;;31.80;51.72;100402.84;5034317;28;20040;-73
2021/06/25 09:32:34;;;;;;;26.00;12.73;;;;;;;32.43;52.31;100391.72;5062829;28;20502;-72
2021/06/25 09:35:11;;;;;;;20.88;13.40;;;;;;;32.39;50.72;100402.00;5064305;28;20108;-72
2021/06/25 09:37:41;;;;;;;28.10;14.23;;;;;;;32.47;51.39;100397.72;5042266;28;20027;-72
2021/06/25 09:40:12;;;;;;;36.70;14.73;;;;;;;32.84;49.66;100391.59;5065069;28;20035;-74
2021/06/25 09:42:39;;;;;;;27.65;12.50;;;;;;;32.93;52.23;100396.16;5071020;28;20024;-73
2021/06/25 09:45:12;;;;;;;19.92;11.82;;;;;;;32.64;51.35;100402.50;5068015;28;20025;-83
2021/06/25 09:47:43;;;;;;;19.23;11.20;;;;;;;32.43;52.21;100386.28;5068105;28;20024;-82
2021/06/25 09:50:20;;;;;;;21.90;14.00;;;;;;;32.66;51.87;100376.00;5047330;28;20028;-84
2021/06/25 09:52:59;;;;;;;34.03;13.45;;;;;;;33.08;52.56;100380.28;5064216;28;20143;-84
2021/06/25 09:55:26;;;;;;;19.75;11.88;;;;;;;33.34;50.37;100378.66;5052565;28;20020;-86
2021/06/25 10:03:47;;;;;;;27.20;13.15;;;;;;;32.70;51.37;100377.44;5070134;28;20509;-83
2021/06/25 10:06:21;;;;;;;24.02;12.13;;;;;;;32.94;51.57;100368.84;5072602;28;20020;-83
2021/06/25 10:08:47;;;;;;;25.98;11.45;;;;;;;33.22;49.92;100361.66;5066884;28;20024;-83
2021/06/25 10:11:15;;;;;;;22.13;11.20;;;;;;;33.12;51.26;100365.41;5068986;28;20021;-84
2021/06/25 10:13:41;;;;;;;19.23;13.25;;;;;;;33.62;48.01;100360.53;5066876;28;20032;-84
2021/06/25 10:16:09;;;;;;;15.13;11.10;;;;;;;33.08;49.65;100358.53;5066789;28;20471;-83
2021/06/25 10:18:49;;;;;;;31.85;12.90;;;;;;;33.38;49.28;100357.44;5070702;28;20082;-83
2021/06/25 10:21:17;;;;;;;18.60;11.27;;;;;;;33.38;48.70;100344.69;5049443;28;20021;-83
2021/06/25 10:23:51;;;;;;;21.30;12.32;;;;;;;33.66;49.51;100350.19;5062033;28;20024;-82
2021/06/25 10:26:19;;;;;;;46.22;12.00;;;;;;;33.61;47.79;100349.78;5065887;28;20107;-82
2021/06/25 10:28:46;;;;;;;11.70;10.45;;;;;;;33.64;49.42;100349.47;5043340;28;20036;-83
2021/06/25 10:31:14;;;;;;;18.40;11.95;;;;;;;33.91;46.96;100343.16;5069231;28;20020;-81
2021/06/25 10:33:41;;;;;;;20.95;11.38;;;;;;;33.81;45.58;100339.63;5063757;28;20028;-83
2021/06/25 10:36:09;;;;;;;23.20;11.10;;;;;;;33.99;46.53;100337.78;5051020;28;20421;-83
2021/06/25 10:38:35;;;;;;;12.05;8.63;;;;;;;34.09;44.17;100337.78;5067598;28;20032;-83
2021/06/25 10:41:03;;;;;;;13.73;9.82;;;;;;;33.78;45.72;100337.22;5061590;28;20329;-84
2021/06/25 10:43:49;;;;;;;13.57;8.93;;;;;;;33.54;42.92;100335.88;5064000;28;20017;-82
2021/06/25 10:46:33;;;;;;;20.33;10.18;;;;;;;33.62;43.86;100336.03;5075993;28;20043;-82
2021/06/25 10:49:10;;;;;;;17.85;9.88;;;;;;;33.62;44.30;100330.59;5068195;28;20368;-82
2021/06/25 10:51:44;;;;;;;11.57;8.38;;;;;;;33.58;43.26;100329.16;5070496;28;20035;-82
2021/06/25 10:54:17;;;;;;;32.53;8.45;;;;;;;33.93;40.94;100327.53;5071948;28;20016;-81
2021/06/25 10:57:06;;;;;;;21.25;8.75;;;;;;;34.32;39.69;100329.97;5069752;28;20803;-83
2021/06/25 10:59:42;;;;;;;24.38;9.65;;;;;;;34.82;36.55;100329.44;5069993;28;20037;-80
2021/06/25 11:02:08;;;;;;;16.20;9.65;;;;;;;35.04;38.44;100313.53;5066210;28;20521;-86
2021/06/25 11:04:34;;;;;;;21.38;10.52;;;;;;;34.84;42.76;100307.44;5070197;28;20032;-83
2021/06/25 11:07:03;;;;;;;16.70;9.98;;;;;;;34.36;41.71;100308.75;5073760;28;20021;-84
2021/06/25 11:09:49;;;;;;;19.77;10.10;;;;;;;33.89;41.61;100307.06;5069014;28;20518;-84
2021/06/25 11:12:25;;;;;;;21.45;9.20;;;;;;;34.18;41.18;100312.31;5066331;28;20058;-83
2021/06/25 11:14:53;;;;;;;21.98;11.77;;;;;;;34.13;42.30;100313.81;5072755;28;20056;-80
2021/06/25 11:17:53;;;;;;;16.85;9.48;;;;;;;34.12;42.02;100309.38;5043977;28;20032;-80
2021/06/25 11:20:26;;;;;;;14.07;9.68;;;;;;;33.69;39.55;100317.19;5069970;28;20033;-80
2021/06/25 11:22:55;;;;;;;19.70;7.93;;;;;;;33.94;39.38;100314.78;5068856;28;20020;-78
2021/06/25 11:25:48;;;;;;;20.10;8.98;;;;;;;34.41;38.67;100318.16;5050981;28;20036;-80
2021/06/25 11:28:26;;;;;;;13.88;8.40;;;;;;;34.08;38.00;100316.09;5063731;28;20068;-80